createdAt,value
2019-05-29T00:00:13.043Z,0
2019-05-29T00:01:27.357Z,0
2019-05-29T00:02:41.461Z,0
2019-05-29T00:03:55.699Z,0
2019-05-29T00:05:09.899Z,0
2019-05-29T00:06:24.172Z,0
2019-05-29T00:07:38.347Z,0
2019-05-29T00:08:52.574Z,0
2019-05-29T00:10:06.809Z,0
2019-05-29T00:11:21.068Z,0
2019-05-29T00:12:35.326Z,0
2019-05-29T00:13:49.564Z,0
2019-05-29T00:15:07.451Z,0
2019-05-29T00:16:17.999Z,0
2019-05-29T00:17:32.135Z,0
2019-05-29T00:18:46.372Z,0
2019-05-29T00:20:00.591Z,0
2019-05-29T00:21:14.897Z,0
2019-05-29T00:22:29.049Z,0
2019-05-29T00:23:43.260Z,0
2019-05-29T00:24:57.590Z,0
2019-05-29T00:26:11.735Z,0
2019-05-29T00:27:25.934Z,0
2019-05-29T00:28:40.159Z,0
2019-05-29T00:29:54.383Z,0
2019-05-29T00:31:08.612Z,0
2019-05-29T00:32:22.852Z,0
2019-05-29T00:33:37.111Z,0
2019-05-29T00:34:52.557Z,0
2019-05-29T00:36:05.641Z,0
2019-05-29T00:37:19.737Z,0
2019-05-29T00:38:33.965Z,0
2019-05-29T00:39:48.189Z,0
2019-05-29T00:41:02.424Z,0
2019-05-29T00:42:16.647Z,0
2019-05-29T00:43:30.904Z,0
2019-05-29T00:44:45.105Z,0
2019-05-29T00:45:59.330Z,0
2019-05-29T00:47:13.566Z,0
2019-05-29T00:48:27.799Z,0
2019-05-29T00:49:42.029Z,0
2019-05-29T00:50:56.268Z,0
2019-05-29T00:52:10.596Z,0
2019-05-29T00:53:24.784Z,0
2019-05-29T00:54:38.945Z,0
2019-05-29T00:55:53.229Z,0
2019-05-29T00:57:07.523Z,0
2019-05-29T00:58:21.721Z,0
2019-05-29T00:59:35.870Z,0
2019-05-29T01:00:50.110Z,0
2019-05-29T01:02:04.344Z,0
2019-05-29T01:03:18.576Z,0
2019-05-29T01:04:32.788Z,0
2019-05-29T01:05:47.010Z,0
2019-05-29T01:07:01.249Z,0
2019-05-29T01:08:15.578Z,0
2019-05-29T01:09:29.802Z,0
2019-05-29T01:10:44.036Z,0
2019-05-29T01:11:58.137Z,0
2019-05-29T01:13:12.399Z,0
2019-05-29T01:14:26.599Z,0
2019-05-29T01:18:12.249Z,0
2019-05-29T01:19:23.504Z,0
2019-05-29T01:20:37.729Z,0
2019-05-29T01:21:51.971Z,0
2019-05-29T01:23:06.216Z,0
2019-05-29T01:24:20.428Z,0
2019-05-29T01:25:34.742Z,0
2019-05-29T01:26:48.866Z,0
2019-05-29T01:28:03.099Z,0
2019-05-29T01:29:17.316Z,0
2019-05-29T01:30:31.559Z,0
2019-05-29T01:31:45.778Z,0
2019-05-29T01:33:00.025Z,0
2019-05-29T01:34:14.298Z,0
2019-05-29T01:35:28.437Z,0
2019-05-29T01:36:42.672Z,0
2019-05-29T01:37:56.895Z,0
2019-05-29T01:39:11.135Z,0
2019-05-29T01:40:25.344Z,0
2019-05-29T01:41:39.652Z,0
2019-05-29T01:42:53.795Z,0
2019-05-29T01:44:08.021Z,0
2019-05-29T01:45:22.281Z,0
2019-05-29T01:46:36.474Z,0
2019-05-29T01:47:50.750Z,0
2019-05-29T01:49:04.963Z,0
2019-05-29T01:50:19.191Z,0
2019-05-29T01:51:33.410Z,0
2019-05-29T01:52:47.642Z,0
2019-05-29T01:54:01.856Z,0
2019-05-29T01:55:16.115Z,0
2019-05-29T01:56:30.323Z,0
2019-05-29T01:57:44.545Z,0
2019-05-29T01:58:58.774Z,0
2019-05-29T02:00:15.781Z,0
2019-05-29T02:01:27.255Z,0
2019-05-29T02:02:41.461Z,0
2019-05-29T02:03:55.711Z,0
2019-05-29T02:05:13.934Z,0
2019-05-29T02:06:24.150Z,0
2019-05-29T02:07:38.482Z,0
2019-05-29T02:08:52.615Z,0
2019-05-29T02:10:06.853Z,0
2019-05-29T02:11:21.194Z,0
2019-05-29T02:12:35.431Z,0
2019-05-29T02:13:49.537Z,0
2019-05-29T02:15:03.765Z,0
2019-05-29T02:16:18.004Z,0
2019-05-29T02:17:32.259Z,0
2019-05-29T02:18:46.500Z,0
2019-05-29T02:20:00.730Z,0
2019-05-29T02:21:14.975Z,0
2019-05-29T02:22:29.192Z,0
2019-05-29T02:23:43.556Z,0
2019-05-29T02:24:57.683Z,0
2019-05-29T02:26:11.960Z,0
2019-05-29T02:27:26.118Z,0
2019-05-29T02:28:40.368Z,0
2019-05-29T02:29:54.588Z,0
2019-05-29T02:31:08.911Z,0
2019-05-29T02:32:23.065Z,0
2019-05-29T02:33:37.315Z,0
2019-05-29T02:34:51.540Z,4
2019-05-29T02:36:05.825Z,4
2019-05-29T02:37:20.000Z,4
2019-05-29T02:38:34.233Z,4
2019-05-29T02:39:48.482Z,4
2019-05-29T02:41:02.706Z,4
2019-05-29T02:42:17.006Z,4
2019-05-29T02:43:35.864Z,4
2019-05-29T02:44:45.417Z,8
2019-05-29T02:47:14.026Z,8
2019-05-29T02:48:28.201Z,12
2019-05-29T02:49:42.387Z,16
2019-05-29T02:50:56.621Z,16
2019-05-29T02:52:10.913Z,20
2019-05-29T02:53:25.142Z,24
2019-05-29T02:54:39.429Z,28
2019-05-29T02:55:53.725Z,32
2019-05-29T02:57:07.791Z,36
2019-05-29T02:58:22.109Z,44
2019-05-29T02:59:36.292Z,48
2019-05-29T03:00:50.502Z,60
2019-05-29T03:02:04.757Z,68
2019-05-29T03:03:18.979Z,80
2019-05-29T03:04:36.155Z,88
2019-05-29T03:05:47.444Z,104
2019-05-29T03:07:01.679Z,120
2019-05-29T03:08:19.166Z,132
2019-05-29T03:09:30.269Z,152
2019-05-29T03:10:44.492Z,172
2019-05-29T03:11:58.621Z,192
2019-05-29T03:13:12.835Z,216
2019-05-29T03:14:27.440Z,240
2019-05-29T03:15:41.344Z,272
2019-05-29T03:16:55.531Z,296
2019-05-29T03:18:09.727Z,332
2019-05-29T03:19:23.970Z,364
2019-05-29T03:20:38.241Z,396
2019-05-29T03:21:52.443Z,436
2019-05-29T03:23:06.744Z,476
2019-05-29T03:24:20.946Z,520
2019-05-29T03:25:37.366Z,564
2019-05-29T03:26:49.361Z,608
2019-05-29T03:28:03.588Z,656
2019-05-29T03:29:17.818Z,704
2019-05-29T03:30:32.058Z,752
2019-05-29T03:31:46.347Z,804
2019-05-29T03:33:00.537Z,856
2019-05-29T03:34:14.812Z,908
2019-05-29T03:35:28.973Z,960
2019-05-29T03:36:43.199Z,1016
2019-05-29T03:37:57.468Z,1072
2019-05-29T03:39:11.688Z,1132
2019-05-29T03:40:25.899Z,1188
2019-05-29T03:41:40.197Z,1244
2019-05-29T03:42:54.414Z,1304
2019-05-29T03:44:08.705Z,1360
2019-05-29T03:45:22.923Z,1416
2019-05-29T03:46:37.209Z,1468
2019-05-29T03:47:51.308Z,1532
2019-05-29T03:49:05.553Z,1588
2019-05-29T03:50:19.839Z,1648
2019-05-29T03:51:33.991Z,1704
2019-05-29T03:52:48.227Z,1760
2019-05-29T03:54:02.457Z,1816
2019-05-29T03:55:16.724Z,1872
2019-05-29T03:56:30.940Z,1928
2019-05-29T03:57:45.202Z,1980
2019-05-29T03:58:59.370Z,2032
2019-05-29T04:00:13.591Z,2084
2019-05-29T04:01:27.814Z,2136
2019-05-29T04:02:42.054Z,2184
2019-05-29T04:03:56.288Z,2232
2019-05-29T04:05:10.488Z,2284
2019-05-29T04:06:24.811Z,2332
2019-05-29T04:07:38.991Z,2380
2019-05-29T04:08:53.154Z,2424
2019-05-29T04:10:07.413Z,2492
2019-05-29T04:11:21.605Z,2540
2019-05-29T04:12:35.841Z,2592
2019-05-29T04:13:50.082Z,2632
2019-05-29T04:15:05.857Z,2684
2019-05-29T04:16:18.601Z,2724
2019-05-29T04:17:32.848Z,2772
2019-05-29T04:18:49.407Z,2812
2019-05-29T04:20:01.213Z,2852
2019-05-29T04:21:15.420Z,2896
2019-05-29T04:22:29.632Z,2940
2019-05-29T04:23:43.860Z,2984
2019-05-29T04:25:00.775Z,3020
2019-05-29T04:26:12.344Z,3064
2019-05-29T04:27:26.513Z,3100
2019-05-29T04:28:40.780Z,3180
2019-05-29T04:29:54.965Z,3344
2019-05-29T04:31:09.229Z,3408
2019-05-29T04:32:23.458Z,3488
2019-05-29T04:33:37.677Z,3672
2019-05-29T04:34:51.860Z,3856
2019-05-29T04:36:07.016Z,3924
2019-05-29T04:37:20.326Z,4004
2019-05-29T04:38:34.535Z,4092
2019-05-29T04:39:48.734Z,4172
2019-05-29T04:41:03.046Z,4232
2019-05-29T04:42:17.174Z,4292
2019-05-29T04:43:31.394Z,4340
2019-05-29T04:44:45.627Z,4400
2019-05-29T04:45:59.813Z,4452
2019-05-29T04:47:14.033Z,4496
2019-05-29T04:48:28.238Z,4536
2019-05-29T04:49:42.618Z,4568
2019-05-29T04:50:56.650Z,4592
2019-05-29T04:52:10.882Z,4588
2019-05-29T04:53:25.116Z,4568
2019-05-29T04:54:39.388Z,4532
2019-05-29T04:55:53.470Z,4496
2019-05-29T04:57:07.671Z,4460
2019-05-29T04:58:21.880Z,4444
2019-05-29T04:59:36.200Z,4448
2019-05-29T05:00:50.317Z,4460
2019-05-29T05:02:04.484Z,4480
2019-05-29T05:03:18.694Z,4504
2019-05-29T05:04:32.928Z,4536
2019-05-29T05:05:47.090Z,4572
2019-05-29T05:07:01.328Z,4608
2019-05-29T05:08:15.502Z,4656
2019-05-29T05:09:29.693Z,4708
2019-05-29T05:10:43.945Z,4792
2019-05-29T05:11:58.095Z,4896
2019-05-29T05:13:12.277Z,5000
2019-05-29T05:14:26.799Z,5112
2019-05-29T05:15:40.675Z,5224
2019-05-29T05:16:54.886Z,5356
2019-05-29T05:18:09.033Z,5480
2019-05-29T05:19:23.226Z,5620
2019-05-29T05:20:37.457Z,5744
2019-05-29T05:21:51.623Z,5816
2019-05-29T05:23:05.803Z,5900
2019-05-29T05:24:20.015Z,5972
2019-05-29T05:25:34.203Z,6064
2019-05-29T05:26:48.385Z,6148
2019-05-29T05:28:02.558Z,6236
2019-05-29T05:29:16.739Z,6324
2019-05-29T05:30:30.957Z,6420
2019-05-29T05:31:45.093Z,6480
2019-05-29T05:32:59.275Z,6584
2019-05-29T05:34:13.502Z,6700
2019-05-29T05:35:27.681Z,6760
2019-05-29T05:36:41.831Z,6808
2019-05-29T05:37:56.024Z,6880
2019-05-29T05:39:10.177Z,6984
2019-05-29T05:40:24.428Z,7116
2019-05-29T05:41:38.652Z,7216
2019-05-29T05:42:52.695Z,7264
2019-05-29T05:44:06.893Z,7308
2019-05-29T05:45:21.147Z,7388
2019-05-29T05:46:35.209Z,7460
2019-05-29T05:47:52.761Z,7588
2019-05-29T05:49:03.537Z,7688
2019-05-29T05:50:17.703Z,7700
2019-05-29T05:51:31.885Z,7796
2019-05-29T05:52:46.043Z,7892
2019-05-29T05:54:00.210Z,8024
2019-05-29T05:55:14.398Z,8104
2019-05-29T05:56:28.577Z,8232
2019-05-29T05:57:42.687Z,8352
2019-05-29T05:58:56.877Z,8444
2019-05-29T06:00:11.018Z,8660
2019-05-29T06:01:25.161Z,8792
2019-05-29T06:02:39.327Z,8764
2019-05-29T06:03:53.517Z,9092
2019-05-29T06:05:07.642Z,9084
2019-05-29T06:06:21.786Z,9160
2019-05-29T06:07:36.106Z,9112
2019-05-29T06:08:50.108Z,9172
2019-05-29T06:10:04.312Z,9268
2019-05-29T06:11:18.408Z,9320
2019-05-29T06:12:32.570Z,9516
2019-05-29T06:13:46.919Z,9700
2019-05-29T06:15:00.892Z,9836
2019-05-29T06:16:15.034Z,10076
2019-05-29T06:17:29.193Z,10164
2019-05-29T06:18:43.362Z,10468
2019-05-29T06:19:57.469Z,10720
2019-05-29T06:21:11.620Z,11224
2019-05-29T06:22:25.749Z,12632
2019-05-29T06:23:39.938Z,14456
2019-05-29T06:24:54.180Z,14788
2019-05-29T06:26:08.185Z,16160
2019-05-29T06:27:22.364Z,16640
2019-05-29T06:28:36.507Z,18080
2019-05-29T06:29:50.690Z,17280
2019-05-29T06:31:04.755Z,16480
2019-05-29T06:32:18.915Z,14560
2019-05-29T06:33:33.100Z,13024
2019-05-29T06:34:47.192Z,12656
2019-05-29T06:36:01.340Z,12228
2019-05-29T06:37:15.473Z,12384
2019-05-29T06:38:29.653Z,12260
2019-05-29T06:39:43.808Z,12492
2019-05-29T06:40:57.980Z,12728
2019-05-29T06:42:12.004Z,13752
2019-05-29T06:43:26.213Z,16896
2019-05-29T06:44:40.340Z,18272
2019-05-29T06:45:54.534Z,19680
2019-05-29T06:47:08.514Z,20128
2019-05-29T06:48:22.669Z,20128
2019-05-29T06:49:36.774Z,21024
2019-05-29T06:50:51.064Z,20256
2019-05-29T06:52:05.025Z,20480
2019-05-29T06:53:19.116Z,19680
2019-05-29T06:54:33.266Z,20512
2019-05-29T06:55:47.418Z,22176
2019-05-29T06:57:01.452Z,22784
2019-05-29T06:58:15.612Z,22624
2019-05-29T06:59:29.677Z,22432
2019-05-29T07:00:47.452Z,21600
2019-05-29T07:02:02.749Z,22624
2019-05-29T07:03:11.977Z,26112
2019-05-29T07:04:26.102Z,22080
2019-05-29T07:05:40.280Z,19648
2019-05-29T07:06:54.381Z,18656
2019-05-29T07:08:08.564Z,20512
2019-05-29T07:09:22.503Z,20576
2019-05-29T07:10:36.601Z,26240
2019-05-29T07:11:50.707Z,25952
2019-05-29T07:13:04.772Z,25728
2019-05-29T07:14:18.894Z,25088
2019-05-29T07:15:33.048Z,23072
2019-05-29T07:16:47.074Z,27296
2019-05-29T07:18:01.148Z,28096
2019-05-29T07:19:15.352Z,27200
2019-05-29T07:20:29.408Z,28576
2019-05-29T07:21:43.530Z,29248
2019-05-29T07:22:57.550Z,29920
2019-05-29T07:24:11.629Z,30080
2019-05-29T07:25:25.740Z,31296
2019-05-29T07:26:39.807Z,31680
2019-05-29T07:27:53.899Z,31648
2019-05-29T07:29:08.022Z,32256
2019-05-29T07:30:22.114Z,31040
2019-05-29T07:31:36.179Z,31648
2019-05-29T07:32:50.352Z,33568
2019-05-29T07:34:04.336Z,35872
2019-05-29T07:35:18.424Z,34880
2019-05-29T07:36:32.507Z,36960
2019-05-29T07:37:46.585Z,37408
2019-05-29T07:39:00.910Z,36384
2019-05-29T07:40:14.756Z,35424
2019-05-29T07:41:28.912Z,37120
2019-05-29T07:43:56.982Z,37440
2019-05-29T07:45:11.062Z,35584
2019-05-29T07:46:25.136Z,36000
2019-05-29T07:47:39.226Z,39616
2019-05-29T07:48:53.320Z,40928
2019-05-29T07:50:07.368Z,39360
2019-05-29T07:51:21.483Z,40416
2019-05-29T07:52:35.536Z,41184
2019-05-29T07:53:49.572Z,42176
2019-05-29T07:55:03.696Z,41184
2019-05-29T07:56:17.737Z,42112
2019-05-29T07:57:31.786Z,42176
2019-05-29T07:58:45.914Z,40704
2019-05-29T07:59:59.906Z,37056
2019-05-29T08:01:13.993Z,37536
2019-05-29T08:02:28.031Z,42304
2019-05-29T08:03:42.103Z,46240
2019-05-29T08:04:56.244Z,48192
2019-05-29T08:06:10.206Z,47776
2019-05-29T08:07:24.277Z,46048
2019-05-29T08:08:38.338Z,44992
2019-05-29T08:09:52.508Z,42880
2019-05-29T08:11:06.457Z,43936
2019-05-29T08:12:20.526Z,45440
2019-05-29T08:13:34.579Z,46272
2019-05-29T08:14:51.744Z,47232
2019-05-29T08:16:02.723Z,48960
2019-05-29T08:17:17.765Z,51680
2019-05-29T08:18:30.831Z,52800
2019-05-29T08:19:45.345Z,53472
2019-05-29T08:20:59.006Z,52736
2019-05-29T08:22:13.011Z,14188
2019-05-29T08:23:27.090Z,32608
2019-05-29T08:24:41.166Z,59328
2019-05-29T08:25:55.221Z,15704
2019-05-29T08:27:09.326Z,12204
2019-05-29T08:28:23.440Z,14520
2019-05-29T08:29:37.519Z,34432
2019-05-29T08:30:51.685Z,45408
2019-05-29T08:32:05.688Z,58816
2019-05-29T08:33:19.764Z,63872
2019-05-29T08:34:33.868Z,61920
2019-05-29T08:35:48.009Z,17880
2019-05-29T08:37:02.021Z,13216
2019-05-29T08:38:16.135Z,12092
2019-05-29T08:39:30.209Z,12340
2019-05-29T08:40:44.315Z,13868
2019-05-29T08:41:58.504Z,17764
2019-05-29T08:43:12.525Z,41920
2019-05-29T08:44:26.664Z,13716
2019-05-29T08:45:40.781Z,21344
2019-05-29T08:46:54.929Z,41056
2019-05-29T08:48:09.021Z,19136
2019-05-29T08:49:23.133Z,42080
2019-05-29T08:50:37.366Z,60512
2019-05-29T08:51:51.926Z,64320
2019-05-29T08:53:05.512Z,66048
2019-05-29T08:54:19.554Z,66400
2019-05-29T08:55:33.629Z,63840
2019-05-29T08:56:47.726Z,61056
2019-05-29T08:58:01.797Z,59104
2019-05-29T08:59:15.846Z,59392
2019-05-29T09:00:29.982Z,61536
2019-05-29T09:01:43.965Z,65248
2019-05-29T09:02:58.002Z,69824
2019-05-29T09:04:12.043Z,62368
2019-05-29T09:05:26.074Z,64800
2019-05-29T09:06:40.166Z,73408
2019-05-29T09:07:54.238Z,70048
2019-05-29T09:09:08.217Z,70976
2019-05-29T09:10:22.315Z,69824
2019-05-29T09:11:36.365Z,73632
2019-05-29T09:12:50.423Z,18232
2019-05-29T09:14:04.445Z,20160
2019-05-29T09:15:18.578Z,77760
2019-05-29T09:16:32.685Z,77984
2019-05-29T09:17:46.663Z,78176
2019-05-29T09:19:00.709Z,77056
2019-05-29T09:20:14.773Z,77408
2019-05-29T09:21:28.788Z,77760
2019-05-29T09:22:42.833Z,79424
2019-05-29T09:23:56.901Z,80320
2019-05-29T09:25:10.977Z,78688
2019-05-29T09:27:39.030Z,80896
2019-05-29T09:28:53.086Z,80672
2019-05-29T09:30:07.166Z,77760
2019-05-29T09:31:21.288Z,77408
2019-05-29T09:32:35.217Z,77696
2019-05-29T09:33:49.240Z,77248
2019-05-29T09:35:03.381Z,79904
2019-05-29T09:36:17.395Z,80512
2019-05-29T09:37:31.344Z,79168
2019-05-29T09:38:45.476Z,79616
2019-05-29T09:39:59.400Z,82592
2019-05-29T09:41:13.523Z,83136
2019-05-29T09:42:27.499Z,82432
2019-05-29T09:43:41.513Z,81344
2019-05-29T09:44:55.610Z,82144
2019-05-29T09:46:09.586Z,84032
2019-05-29T09:47:23.596Z,85920
2019-05-29T09:48:37.624Z,85056
2019-05-29T09:49:51.619Z,81280
2019-05-29T09:51:05.744Z,83584
2019-05-29T09:52:19.683Z,84064
2019-05-29T09:53:33.717Z,83648
2019-05-29T09:54:47.738Z,82016
2019-05-29T09:56:01.775Z,83680
2019-05-29T09:57:15.784Z,82304
2019-05-29T09:58:29.829Z,84256
2019-05-29T09:59:43.842Z,83328
2019-05-29T10:00:58.005Z,84000
2019-05-29T10:02:11.982Z,84640
2019-05-29T10:03:25.922Z,85536
2019-05-29T10:04:39.966Z,19296
2019-05-29T10:05:53.978Z,86464
2019-05-29T10:07:08.041Z,86208
2019-05-29T10:08:22.032Z,84352
2019-05-29T10:09:36.166Z,88096
2019-05-29T10:10:50.229Z,87552
2019-05-29T10:12:04.077Z,86496
2019-05-29T10:13:18.181Z,83104
2019-05-29T10:14:32.755Z,85312
2019-05-29T10:15:46.688Z,85344
2019-05-29T10:17:00.221Z,88832
2019-05-29T10:18:14.193Z,88160
2019-05-29T10:19:28.200Z,91392
2019-05-29T10:20:42.268Z,92256
2019-05-29T10:21:56.272Z,88256
2019-05-29T10:23:10.379Z,95456
2019-05-29T10:24:24.305Z,94752
2019-05-29T10:26:52.426Z,97984
2019-05-29T10:28:06.377Z,101792
2019-05-29T10:30:34.423Z,101472
2019-05-29T10:31:48.502Z,101472
2019-05-29T10:33:02.574Z,99488
2019-05-29T10:34:16.619Z,99296
2019-05-29T10:35:30.503Z,98848
2019-05-29T10:36:44.517Z,101120
2019-05-29T10:37:58.597Z,92320
2019-05-29T10:39:12.523Z,95488
2019-05-29T10:40:26.553Z,95424
2019-05-29T10:42:54.576Z,99072
2019-05-29T10:44:08.599Z,100704
2019-05-29T10:45:22.604Z,103072
2019-05-29T10:46:36.617Z,102656
2019-05-29T10:47:50.821Z,98560
2019-05-29T10:49:04.752Z,100512
2019-05-29T10:50:18.630Z,101120
2019-05-29T10:51:32.663Z,100224
2019-05-29T10:52:46.684Z,102464
2019-05-29T10:54:00.834Z,103584
2019-05-29T10:55:14.715Z,105312
2019-05-29T10:56:28.750Z,104960
2019-05-29T10:57:42.815Z,107072
2019-05-29T10:58:56.840Z,107264
2019-05-29T11:00:10.843Z,103104
2019-05-29T11:01:24.979Z,105856
2019-05-29T11:02:38.898Z,106816
2019-05-29T11:03:52.944Z,106496
2019-05-29T11:05:06.933Z,103392
2019-05-29T11:06:21.042Z,109952
2019-05-29T11:07:34.972Z,105248
2019-05-29T11:08:49.067Z,106720
2019-05-29T11:11:17.068Z,110816
2019-05-29T11:12:31.083Z,113376
2019-05-29T11:13:45.146Z,111264
2019-05-29T11:14:59.140Z,113632
2019-05-29T11:16:13.117Z,110432
2019-05-29T11:17:27.228Z,108608
2019-05-29T11:19:55.334Z,104832
2019-05-29T11:21:09.253Z,106432
2019-05-29T11:22:23.191Z,101856
2019-05-29T11:23:37.293Z,105856
2019-05-29T11:24:51.349Z,90688
2019-05-29T11:26:05.326Z,67168
2019-05-29T11:27:19.277Z,65056
2019-05-29T11:28:33.311Z,113408
2019-05-29T11:29:47.366Z,115104
2019-05-29T11:31:01.361Z,113536
2019-05-29T11:32:15.419Z,113920
2019-05-29T11:33:29.409Z,114560
2019-05-29T11:34:43.451Z,113952
2019-05-29T11:35:57.478Z,109984
2019-05-29T11:37:11.496Z,112832
2019-05-29T11:38:25.541Z,111712
2019-05-29T11:39:39.571Z,114816
2019-05-29T11:40:53.674Z,113280
2019-05-29T11:42:07.632Z,115328
2019-05-29T11:43:21.676Z,118304
2019-05-29T11:44:35.696Z,112096
2019-05-29T11:45:49.704Z,114976
2019-05-29T11:48:17.742Z,119392
2019-05-29T11:49:31.776Z,111712
2019-05-29T11:50:45.836Z,119648
2019-05-29T11:53:13.858Z,117216
2019-05-29T11:54:27.891Z,115104
2019-05-29T11:55:41.916Z,112448
2019-05-29T11:56:56.552Z,114016
2019-05-29T11:58:10.502Z,119264
2019-05-29T11:59:24.186Z,115008
2019-05-29T12:00:38.007Z,117184
2019-05-29T12:01:53.306Z,115392
2019-05-29T12:03:06.156Z,116288
2019-05-29T12:04:21.420Z,119072
2019-05-29T12:05:34.109Z,120864
2019-05-29T12:06:48.157Z,110144
2019-05-29T12:08:02.259Z,113920
2019-05-29T12:09:16.311Z,110880
2019-05-29T12:10:30.271Z,113696
2019-05-29T12:11:44.397Z,105024
2019-05-29T12:14:12.362Z,116128
2019-05-29T12:15:26.356Z,119072
2019-05-29T12:17:54.699Z,123648
2019-05-29T12:19:08.434Z,122496
2019-05-29T12:20:23.780Z,122880
2019-05-29T12:21:37.518Z,30272
2019-05-29T12:22:50.523Z,123040
2019-05-29T12:24:04.557Z,123424
2019-05-29T12:25:18.601Z,37632
2019-05-29T12:26:32.616Z,118944
2019-05-29T12:29:05.391Z,118016
2019-05-29T12:30:19.595Z,118432
2019-05-29T12:31:28.853Z,118336
2019-05-29T12:33:56.850Z,118208
2019-05-29T12:35:10.882Z,120224
2019-05-29T12:36:24.934Z,119872
2019-05-29T12:37:38.975Z,124992
2019-05-29T12:38:53.027Z,127584
2019-05-29T12:40:07.100Z,35648
2019-05-29T12:41:21.181Z,122752
2019-05-29T12:42:35.886Z,118880
2019-05-29T12:43:49.307Z,116800
2019-05-29T12:45:03.278Z,119424
2019-05-29T12:46:17.292Z,120160
2019-05-29T12:47:31.340Z,118432
2019-05-29T12:48:45.417Z,119072
2019-05-29T12:49:59.623Z,117152
2019-05-29T12:51:13.489Z,118912
2019-05-29T12:52:27.558Z,118688
2019-05-29T12:53:41.562Z,116704
2019-05-29T12:54:55.728Z,116192
2019-05-29T12:56:09.651Z,119520
2019-05-29T12:57:23.702Z,116192
2019-05-29T12:58:37.823Z,119904
2019-05-29T12:59:51.825Z,119232
2019-05-29T13:01:05.817Z,116544
2019-05-29T13:02:19.845Z,116960
2019-05-29T13:04:48.086Z,119136
2019-05-29T13:06:02.008Z,119520
2019-05-29T13:07:16.008Z,117216
2019-05-29T13:10:58.148Z,115936
2019-05-29T13:12:12.236Z,114688
2019-05-29T13:13:26.331Z,118944
2019-05-29T13:14:40.321Z,116704
2019-05-29T13:17:08.408Z,119936
2019-05-29T13:18:22.459Z,121376
2019-05-29T13:19:36.437Z,114624
2019-05-29T13:20:50.478Z,120064
2019-05-29T13:22:04.609Z,118912
2019-05-29T13:23:18.575Z,114272
2019-05-29T13:24:32.641Z,116640
2019-05-29T13:25:46.672Z,114208
2019-05-29T13:27:00.728Z,117888
2019-05-29T13:28:14.769Z,118496
2019-05-29T13:29:28.814Z,120352
2019-05-29T13:30:42.863Z,115840
2019-05-29T13:31:57.059Z,119776
2019-05-29T13:33:10.967Z,113152
2019-05-29T13:34:25.014Z,114496
2019-05-29T13:35:39.054Z,115552
2019-05-29T13:36:53.157Z,114752
2019-05-29T13:38:07.205Z,117056
2019-05-29T13:39:21.283Z,119424
2019-05-29T13:40:35.261Z,117344
2019-05-29T13:41:49.279Z,119200
2019-05-29T13:43:03.380Z,120288
2019-05-29T13:44:17.369Z,118176
2019-05-29T13:45:31.434Z,119360
2019-05-29T13:46:45.606Z,120000
2019-05-29T13:47:59.514Z,120160
2019-05-29T13:49:13.628Z,122880
2019-05-29T13:50:27.698Z,120192
2019-05-29T13:51:41.726Z,115936
2019-05-29T13:54:09.804Z,117856
2019-05-29T13:55:23.836Z,119360
2019-05-29T13:56:37.882Z,118336
2019-05-29T13:57:51.943Z,112160
2019-05-29T14:01:36.469Z,116224
2019-05-29T14:02:51.521Z,112672
2019-05-29T14:04:02.202Z,109888
2019-05-29T14:05:16.308Z,109920
2019-05-29T14:06:30.353Z,109824
2019-05-29T14:07:44.495Z,113024
2019-05-29T14:08:58.652Z,114208
2019-05-29T14:10:12.532Z,115456
2019-05-29T14:11:26.574Z,115936
2019-05-29T14:12:40.747Z,115840
2019-05-29T14:13:54.716Z,113184
2019-05-29T14:15:08.798Z,115168
2019-05-29T14:16:22.951Z,114912
2019-05-29T14:17:37.111Z,112032
2019-05-29T14:18:51.083Z,111328
2019-05-29T14:20:07.240Z,112512
2019-05-29T14:21:19.072Z,110560
2019-05-29T14:22:33.132Z,111008
2019-05-29T14:23:47.194Z,112608
2019-05-29T14:25:01.277Z,110624
2019-05-29T14:26:15.303Z,107712
2019-05-29T14:27:29.365Z,112032
2019-05-29T14:28:43.412Z,109664
2019-05-29T14:29:57.475Z,110848
2019-05-29T14:31:11.557Z,110464
2019-05-29T14:32:25.583Z,109504
2019-05-29T14:33:39.622Z,110272
2019-05-29T14:34:53.685Z,109120
2019-05-29T14:36:07.738Z,108160
2019-05-29T14:37:21.903Z,111200
2019-05-29T14:38:36.047Z,109088
2019-05-29T14:39:49.947Z,108800
2019-05-29T14:41:04.080Z,107520
2019-05-29T14:42:18.088Z,107456
2019-05-29T14:43:32.155Z,106976
2019-05-29T14:44:46.302Z,105952
2019-05-29T14:46:00.273Z,106272
2019-05-29T14:47:14.352Z,104384
2019-05-29T14:48:28.438Z,105536
2019-05-29T14:49:42.561Z,106816
2019-05-29T14:50:56.556Z,105920
2019-05-29T14:52:10.641Z,105024
2019-05-29T14:53:24.694Z,102624
2019-05-29T14:54:38.872Z,103456
2019-05-29T14:55:52.887Z,102176
2019-05-29T14:57:06.884Z,102208
2019-05-29T14:58:20.956Z,102016
2019-05-29T14:59:34.979Z,100192
2019-05-29T15:00:49.070Z,100224
2019-05-29T15:02:03.204Z,98528
2019-05-29T15:03:17.246Z,100960
2019-05-29T15:04:31.266Z,97856
2019-05-29T15:05:45.353Z,98272
2019-05-29T15:06:59.358Z,97536
2019-05-29T15:08:13.501Z,94176
2019-05-29T15:09:27.480Z,97600
2019-05-29T15:10:41.526Z,96160
2019-05-29T15:11:55.602Z,95520
2019-05-29T15:13:09.660Z,96320
2019-05-29T15:15:37.761Z,91232
2019-05-29T15:16:51.785Z,88640
2019-05-29T15:18:06.520Z,89888
2019-05-29T15:19:19.870Z,92288
2019-05-29T15:20:33.939Z,92576
2019-05-29T15:23:06.113Z,92448
2019-05-29T15:24:16.082Z,92032
2019-05-29T15:25:30.129Z,90048
2019-05-29T15:26:44.205Z,90464
2019-05-29T15:27:58.212Z,88896
2019-05-29T15:30:26.368Z,88960
2019-05-29T15:31:40.381Z,89088
2019-05-29T15:32:54.629Z,87936
2019-05-29T15:34:08.505Z,86240
2019-05-29T15:35:22.673Z,85664
2019-05-29T15:39:04.771Z,90784
2019-05-29T15:40:18.848Z,70464
2019-05-29T15:41:32.933Z,21664
2019-05-29T15:42:47.069Z,86944
2019-05-29T15:44:01.156Z,90816
2019-05-29T15:45:15.136Z,90592
2019-05-29T15:46:29.305Z,87744
2019-05-29T15:47:43.277Z,83264
2019-05-29T15:48:57.366Z,38784
2019-05-29T15:50:11.447Z,85280
2019-05-29T15:51:25.481Z,86048
2019-05-29T15:52:39.546Z,83840
2019-05-29T15:53:53.611Z,85440
2019-05-29T15:56:21.809Z,80800
2019-05-29T15:57:35.797Z,80192
2019-05-29T15:58:49.875Z,79520
2019-05-29T16:00:04.034Z,81792
2019-05-29T16:01:18.048Z,81536
2019-05-29T16:03:46.152Z,79552
2019-05-29T16:05:00.300Z,80736
2019-05-29T16:07:28.470Z,78144
2019-05-29T16:08:42.408Z,74528
2019-05-29T16:09:56.524Z,75136
2019-05-29T16:11:10.552Z,77344
2019-05-29T16:12:24.718Z,78336
2019-05-29T16:13:38.696Z,78112
2019-05-29T16:14:52.728Z,77984
2019-05-29T16:16:06.839Z,78976
2019-05-29T16:17:20.900Z,77728
2019-05-29T16:18:34.919Z,74080
2019-05-29T16:19:48.987Z,72992
2019-05-29T16:22:17.240Z,68608
2019-05-29T16:23:31.193Z,51200
2019-05-29T16:25:59.389Z,25216
2019-05-29T16:27:13.381Z,23776
2019-05-29T16:28:27.441Z,23392
2019-05-29T16:29:41.503Z,23136
2019-05-29T16:30:55.652Z,23168
2019-05-29T16:32:09.653Z,23232
2019-05-29T16:33:23.889Z,23232
2019-05-29T16:34:37.759Z,23104
2019-05-29T16:37:05.975Z,22688
2019-05-29T16:38:21.797Z,21184
2019-05-29T16:40:48.154Z,22048
2019-05-29T16:42:02.231Z,22080
2019-05-29T16:43:16.320Z,22048
2019-05-29T16:44:30.509Z,22272
2019-05-29T16:45:44.446Z,22144
2019-05-29T16:48:14.159Z,22208
2019-05-29T16:49:26.750Z,22400
2019-05-29T16:50:40.780Z,22688
2019-05-29T16:51:54.917Z,23552
2019-05-29T16:53:08.965Z,25152
2019-05-29T16:54:23.044Z,28960
2019-05-29T16:55:37.163Z,39328
2019-05-29T16:56:51.234Z,65056
2019-05-29T16:58:05.302Z,72064
2019-05-29T16:59:19.381Z,65952
2019-05-29T17:00:33.468Z,65344